Time;durP1;ratioP1;P1;durP2;ratioP2;P2;SDS_P1;SDS_P2;PMS_P1;PMS_P2;Temp;Humidity;BMP_temperature;BMP_pressure;BME280_temperature;BME280_humidity;BME280_pressure;Samples;Min_cycle;Max_cycle;Signal;HPM_P1;HPM_P2
2023/05/12 00:02:07;;;;;;;13.32;5.57;;;;;;;;;;5015601;28;20022;-59
2023/05/12 00:04:34;;;;;;;8.23;3.80;;;;;;;;;;4997781;28;20480;-59
2023/05/12 00:07:00;;;;;;;8.75;5.43;;;;;;;;;;5014868;28;20133;-59
2023/05/12 00:09:25;;;;;;;5.05;3.45;;;;;;;;;;5015049;28;20117;-59
2023/05/12 00:11:51;;;;;;;5.40;4.60;;;;;;;;;;5015168;28;20099;-58
2023/05/12 00:14:18;;;;;;;7.85;4.50;;;;;;;;;;4998379;28;20030;-61
2023/05/12 00:16:44;;;;;;;9.32;4.20;;;;;;;;;;5015298;28;20056;-61
2023/05/12 00:19:09;;;;;;;16.48;6.55;;;;;;;;;;5014619;28;20084;-61
2023/05/12 00:21:35;;;;;;;7.55;4.20;;;;;;;;;;5014970;28;20026;-67
2023/05/12 00:24:00;;;;;;;6.47;3.38;;;;;;;;;;5014561;28;20449;-67
2023/05/12 00:26:25;;;;;;;9.30;5.55;;;;;;;;;;4997129;28;20097;-66
2023/05/12 00:28:51;;;;;;;6.93;3.65;;;;;;;;;;5014882;28;20026;-66
2023/05/12 00:31:17;;;;;;;8.73;4.55;;;;;;;;;;5014690;28;20419;-59
2023/05/12 00:33:42;;;;;;;5.35;3.63;;;;;;;;;;5014580;28;20051;-59
2023/05/12 00:36:07;;;;;;;6.88;5.07;;;;;;;;;;5014810;28;20084;-59
2023/05/12 00:38:33;;;;;;;6.15;3.85;;;;;;;;;;4997081;28;20026;-59
2023/05/12 00:40:58;;;;;;;4.47;3.33;;;;;;;;;;5014607;28;20038;-59
2023/05/12 00:43:24;;;;;;;7.25;4.10;;;;;;;;;;4980796;28;20026;-66
2023/05/12 00:45:49;;;;;;;6.88;3.40;;;;;;;;;;5014498;28;20092;-66
2023/05/12 00:48:15;;;;;;;5.45;4.13;;;;;;;;;;4997076;28;20377;-65
2023/05/12 00:50:42;;;;;;;6.38;4.57;;;;;;;;;;4997003;28;20477;-58
2023/05/12 00:53:08;;;;;;;8.80;4.13;;;;;;;;;;5014806;28;20029;-58
2023/05/12 00:55:35;;;;;;;9.43;5.28;;;;;;;;;;5014676;28;20056;-58
2023/05/12 00:58:01;;;;;;;7.28;5.07;;;;;;;;;;4980729;28;20030;-58
2023/05/12 01:00:27;;;;;;;5.57;3.95;;;;;;;;;;4996632;28;20022;-59
2023/05/12 01:02:52;;;;;;;4.88;4.15;;;;;;;;;;4996493;28;20409;-66
2023/05/12 01:05:18;;;;;;;4.25;3.47;;;;;;;;;;4996498;28;20028;-66
2023/05/12 01:07:45;;;;;;;8.23;4.15;;;;;;;;;;4996547;28;20025;-61
2023/05/12 01:10:17;;;;;;;6.18;4.80;;;;;;;;;;4997187;28;20384;-61
2023/05/12 01:12:43;;;;;;;4.38;3.97;;;;;;;;;;4997187;28;20120;-61
2023/05/12 01:15:09;;;;;;;6.65;4.32;;;;;;;;;;5014620;28;20061;-61
2023/05/12 01:17:36;;;;;;;6.15;3.90;;;;;;;;;;4997017;28;20029;-61
2023/05/12 01:20:03;;;;;;;7.43;3.70;;;;;;;;;;4997019;28;20030;-61
2023/05/12 01:22:32;;;;;;;11.10;4.70;;;;;;;;;;4996552;28;20017;-58
2023/05/12 01:25:03;;;;;;;7.03;3.60;;;;;;;;;;4996278;28;20037;-58
2023/05/12 01:27:30;;;;;;;8.15;5.22;;;;;;;;;;4996733;28;20376;-58
2023/05/12 01:30:03;;;;;;;9.48;5.30;;;;;;;;;;4996430;28;20042;-58
2023/05/12 01:32:32;;;;;;;9.02;4.32;;;;;;;;;;4996401;28;20038;-58
2023/05/12 01:34:57;;;;;;;7.45;4.32;;;;;;;;;;5014349;28;20225;-59
2023/05/12 01:37:26;;;;;;;9.73;6.90;;;;;;;;;;4996228;28;20032;-59
2023/05/12 01:39:52;;;;;;;6.63;4.38;;;;;;;;;;4995848;28;20049;-59
2023/05/12 01:42:19;;;;;;;7.05;4.18;;;;;;;;;;4995791;28;20030;-59
2023/05/12 01:44:45;;;;;;;5.38;3.80;;;;;;;;;;4995570;28;20473;-66
2023/05/12 01:47:10;;;;;;;7.60;4.30;;;;;;;;;;5013945;28;20042;-66
2023/05/12 01:49:37;;;;;;;5.82;4.05;;;;;;;;;;4995837;28;20018;-59
2023/05/12 01:52:05;;;;;;;10.00;4.07;;;;;;;;;;4996454;28;20038;-65
2023/05/12 01:54:30;;;;;;;3.85;3.25;;;;;;;;;;4996243;28;20030;-66
2023/05/12 01:56:56;;;;;;;6.88;4.60;;;;;;;;;;4996532;28;20041;-66
2023/05/12 01:59:21;;;;;;;5.13;3.75;;;;;;;;;;4999342;28;20092;-65
2023/05/12 02:01:47;;;;;;;5.07;3.55;;;;;;;;;;5000277;28;20025;-65
2023/05/12 02:04:17;;;;;;;;;;;;;;;;;;5000295;28;20109;-65
2023/05/12 02:06:45;;;;;;;6.93;4.03;;;;;;;;;;5000080;28;19955;-66
2023/05/12 02:09:10;;;;;;;6.97;3.72;;;;;;;;;;5000130;28;20435;-66
2023/05/12 02:11:36;;;;;;;7.50;4.85;;;;;;;;;;4999883;28;20045;-65
2023/05/12 02:14:01;;;;;;;5.25;3.83;;;;;;;;;;4999586;28;20033;-65
2023/05/12 02:16:27;;;;;;;5.18;3.40;;;;;;;;;;4999748;28;20060;-65
2023/05/12 02:18:52;;;;;;;9.15;4.90;;;;;;;;;;4999321;28;20065;-65
2023/05/12 02:21:17;;;;;;;5.32;4.72;;;;;;;;;;4999521;28;20029;-65
2023/05/12 02:23:43;;;;;;;8.13;5.63;;;;;;;;;;4999584;28;20130;-65
2023/05/12 02:26:08;;;;;;;8.55;3.92;;;;;;;;;;4999138;28;20052;-58
2023/05/12 02:28:35;;;;;;;8.93;4.47;;;;;;;;;;5017057;28;20034;-64
2023/05/12 02:31:00;;;;;;;11.50;5.72;;;;;;;;;;4999257;28;20120;-65
2023/05/12 02:33:29;;;;;;;13.10;7.07;;;;;;;;;;4999937;28;20030;-65
2023/05/12 02:35:54;;;;;;;9.35;5.45;;;;;;;;;;4983312;28;20431;-65
2023/05/12 02:38:20;;;;;;;7.35;4.85;;;;;;;;;;4999266;28;20030;-66
2023/05/12 02:40:46;;;;;;;9.40;4.90;;;;;;;;;;5016955;28;20081;-65
2023/05/12 02:43:12;;;;;;;7.93;5.20;;;;;;;;;;4999490;28;20029;-58
2023/05/12 02:45:37;;;;;;;9.35;4.22;;;;;;;;;;4999421;28;20333;-58
2023/05/12 02:48:03;;;;;;;5.28;4.18;;;;;;;;;;5016722;28;20488;-58
2023/05/12 02:50:28;;;;;;;14.23;4.70;;;;;;;;;;5016909;28;20022;-65
2023/05/12 02:52:53;;;;;;;7.10;4.25;;;;;;;;;;4998841;28;20033;-65
2023/05/12 02:55:19;;;;;;;5.75;4.30;;;;;;;;;;4999381;28;20018;-65
2023/05/12 02:57:44;;;;;;;5.00;3.88;;;;;;;;;;4998840;28;20449;-58
2023/05/12 03:00:10;;;;;;;4.88;3.20;;;;;;;;;;5016404;28;20037;-58
2023/05/12 03:02:38;;;;;;;4.00;3.30;;;;;;;;;;4998808;28;20033;-58
2023/05/12 03:05:05;;;;;;;4.13;3.83;;;;;;;;;;5016467;28;20400;-58
2023/05/12 03:07:31;;;;;;;3.95;3.45;;;;;;;;;;4998573;28;20017;-58
2023/05/12 03:09:57;;;;;;;5.78;3.72;;;;;;;;;;5016138;28;20038;-58
2023/05/12 03:12:22;;;;;;;5.10;4.00;;;;;;;;;;4998346;28;20366;-58
2023/05/12 03:14:48;;;;;;;7.50;4.22;;;;;;;;;;5016086;28;20057;-59
2023/05/12 03:17:13;;;;;;;5.00;3.63;;;;;;;;;;4998456;28;20040;-58
2023/05/12 03:19:39;;;;;;;5.30;3.67;;;;;;;;;;4998545;28;20034;-58
2023/05/12 03:22:06;;;;;;;4.22;3.78;;;;;;;;;;4998404;28;20445;-57
2023/05/12 03:24:31;;;;;;;3.90;3.53;;;;;;;;;;5016007;28;20469;-58
2023/05/12 03:26:57;;;;;;;5.57;4.35;;;;;;;;;;4998678;28;20025;-58
2023/05/12 03:29:23;;;;;;;5.93;3.83;;;;;;;;;;4982435;28;20468;-59
2023/05/12 03:31:48;;;;;;;5.00;3.85;;;;;;;;;;5015884;28;20033;-64
2023/05/12 03:34:14;;;;;;;7.95;3.70;;;;;;;;;;4998443;28;20117;-64
2023/05/12 03:36:40;;;;;;;3.92;3.35;;;;;;;;;;5015981;28;20022;-65
2023/05/12 03:39:07;;;;;;;6.97;3.80;;;;;;;;;;4998069;28;20407;-65
2023/05/12 03:41:33;;;;;;;5.57;4.18;;;;;;;;;;4998549;28;20045;-65
2023/05/12 03:43:59;;;;;;;5.60;3.47;;;;;;;;;;5015958;28;20119;-65
2023/05/12 03:46:24;;;;;;;7.97;3.90;;;;;;;;;;5015710;28;20025;-64
2023/05/12 03:48:49;;;;;;;4.35;3.35;;;;;;;;;;4995207;28;20128;-64
2023/05/12 03:51:15;;;;;;;4.00;3.50;;;;;;;;;;4996703;28;20026;-64
2023/05/12 03:53:44;;;;;;;4.82;4.18;;;;;;;;;;4996916;28;20092;-64
2023/05/12 03:56:09;;;;;;;4.22;3.83;;;;;;;;;;4996930;28;20030;-64
2023/05/12 03:58:34;;;;;;;4.18;3.53;;;;;;;;;;4996951;28;20080;-64
2023/05/12 04:01:00;;;;;;;7.05;3.67;;;;;;;;;;5014018;28;20034;-64
2023/05/12 04:03:26;;;;;;;3.95;3.55;;;;;;;;;;5014158;28;20062;-64
2023/05/12 04:05:56;;;;;;;10.02;4.30;;;;;;;;;;5014825;28;20061;-64
2023/05/12 04:08:22;;;;;;;;;;;;;;;;;;4997817;28;20026;-64
2023/05/12 04:10:47;;;;;;;7.07;3.80;;;;;;;;;;4996923;28;19932;-64
2023/05/12 04:13:13;;;;;;;6.18;4.10;;;;;;;;;;5014484;28;20483;-64
2023/05/12 04:15:38;;;;;;;6.72;4.13;;;;;;;;;;5013133;28;20026;-64
2023/05/12 04:18:04;;;;;;;4.78;3.60;;;;;;;;;;5014172;28;20034;-64
2023/05/12 04:20:29;;;;;;;6.03;4.00;;;;;;;;;;5013457;28;20103;-64
2023/05/12 04:22:55;;;;;;;5.85;3.33;;;;;;;;;;4996835;28;20026;-64
2023/05/12 04:25:21;;;;;;;5.68;3.88;;;;;;;;;;4996611;28;20019;-65
2023/05/12 04:27:46;;;;;;;7.95;3.67;;;;;;;;;;4995899;28;20499;-64
2023/05/12 04:30:11;;;;;;;4.45;3.40;;;;;;;;;;4996784;28;20029;-64
2023/05/12 04:32:38;;;;;;;3.92;3.30;;;;;;;;;;4980048;28;20026;-64
2023/05/12 04:35:05;;;;;;;5.10;3.25;;;;;;;;;;4996161;28;20036;-64
2023/05/12 04:37:30;;;;;;;6.07;3.58;;;;;;;;;;4995551;28;20038;-65
2023/05/12 04:39:56;;;;;;;7.07;4.30;;;;;;;;;;4996141;28;20388;-64
2023/05/12 04:42:22;;;;;;;3.35;3.15;;;;;;;;;;4996177;28;20057;-64
2023/05/12 04:44:51;;;;;;;4.75;3.70;;;;;;;;;;4995616;28;20057;-64
2023/05/12 04:47:17;;;;;;;6.38;3.78;;;;;;;;;;4994767;28;20030;-65
2023/05/12 04:49:43;;;;;;;3.38;3.08;;;;;;;;;;4995110;28;20081;-65
2023/05/12 04:52:08;;;;;;;4.78;3.50;;;;;;;;;;5013095;28;20033;-65
2023/05/12 04:54:34;;;;;;;6.57;3.50;;;;;;;;;;5013645;28;20054;-64
2023/05/12 04:56:59;;;;;;;6.68;3.55;;;;;;;;;;5000537;28;20386;-65
2023/05/12 04:59:25;;;;;;;4.78;3.22;;;;;;;;;;4999160;28;20071;-65
2023/05/12 05:01:52;;;;;;;5.70;3.40;;;;;;;;;;5014977;28;20010;-65
2023/05/12 05:04:18;;;;;;;6.18;3.40;;;;;;;;;;5007412;28;20018;-65
2023/05/12 05:06:44;;;;;;;6.30;3.47;;;;;;;;;;4996149;28;20552;-63
2023/05/12 05:09:11;;;;;;;4.57;3.40;;;;;;;;;;4995873;28;20081;-64
2023/05/12 05:11:36;;;;;;;4.53;2.90;;;;;;;;;;4995931;28;20451;-64
2023/05/12 05:14:02;;;;;;;5.43;3.80;;;;;;;;;;5013289;28;20038;-56
2023/05/12 05:16:28;;;;;;;4.88;3.38;;;;;;;;;;4995978;28;20029;-57
2023/05/12 05:18:53;;;;;;;5.85;3.50;;;;;;;;;;4997006;28;20057;-57
2023/05/12 05:21:19;;;;;;;5.57;3.35;;;;;;;;;;4996218;28;20377;-57
2023/05/12 05:23:44;;;;;;;5.60;3.40;;;;;;;;;;5014247;28;20061;-57
2023/05/12 05:26:10;;;;;;;5.75;3.65;;;;;;;;;;4996594;28;20022;-57
2023/05/12 05:28:38;;;;;;;3.88;3.33;;;;;;;;;;4996253;28;20449;-57
2023/05/12 05:31:04;;;;;;;6.10;3.05;;;;;;;;;;5013432;28;20484;-58
2023/05/12 05:33:30;;;;;;;3.72;3.30;;;;;;;;;;5000951;28;20033;-64
2023/05/12 05:35:55;;;;;;;5.88;3.20;;;;;;;;;;5018231;28;20036;-64
2023/05/12 05:38:22;;;;;;;6.03;3.00;;;;;;;;;;5016470;28;20472;-56
2023/05/12 05:40:47;;;;;;;5.78;3.40;;;;;;;;;;4982289;28;20057;-56
2023/05/12 05:43:14;;;;;;;3.60;3.17;;;;;;;;;;4996516;28;20026;-56
2023/05/12 05:45:39;;;;;;;3.97;3.28;;;;;;;;;;5016092;28;20029;-56
2023/05/12 05:48:05;;;;;;;3.53;2.97;;;;;;;;;;4999695;28;20518;-55
2023/05/12 05:50:31;;;;;;;5.90;3.50;;;;;;;;;;4999844;28;20026;-55
2023/05/12 05:52:56;;;;;;;4.20;3.50;;;;;;;;;;5016966;28;20080;-56
2023/05/12 05:55:22;;;;;;;3.78;3.40;;;;;;;;;;4999538;28;20022;-55
2023/05/12 05:57:48;;;;;;;15.13;4.25;;;;;;;;;;4998652;28;20030;-56
2023/05/12 06:00:14;;;;;;;4.70;3.00;;;;;;;;;;4998024;28;20037;-56
2023/05/12 06:02:43;;;;;;;6.25;4.00;;;;;;;;;;4997823;28;20127;-55
2023/05/12 06:05:16;;;;;;;7.35;3.38;;;;;;;;;;4997728;28;20022;-55
2023/05/12 06:07:42;;;;;;;4.88;3.40;;;;;;;;;;4982255;28;20034;-56
2023/05/12 06:10:07;;;;;;;4.13;3.40;;;;;;;;;;4998712;28;20037;-56
2023/05/12 06:12:33;;;;;;;3.75;3.25;;;;;;;;;;5016238;28;20030;-55
2023/05/12 06:14:58;;;;;;;4.32;3.20;;;;;;;;;;5016360;28;20026;-55
2023/05/12 06:17:23;;;;;;;3.65;3.35;;;;;;;;;;4999530;28;20476;-55
2023/05/12 06:19:49;;;;;;;3.47;3.17;;;;;;;;;;4999402;28;20404;-55
2023/05/12 06:22:15;;;;;;;5.68;3.40;;;;;;;;;;5017102;28;20022;-56
2023/05/12 06:24:40;;;;;;;3.75;3.35;;;;;;;;;;5017024;28;20479;-55
2023/05/12 06:27:08;;;;;;;3.72;3.40;;;;;;;;;;4999337;28;20045;-56
2023/05/12 06:29:33;;;;;;;4.43;3.35;;;;;;;;;;4999359;28;20461;-55
2023/05/12 06:31:58;;;;;;;6.22;3.50;;;;;;;;;;4999298;28;20387;-56
2023/05/12 06:34:24;;;;;;;6.82;4.13;;;;;;;;;;4999269;28;20073;-55
2023/05/12 06:36:49;;;;;;;3.42;3.10;;;;;;;;;;5017321;28;20038;-55
2023/05/12 06:39:15;;;;;;;4.70;3.33;;;;;;;;;;5016532;28;20129;-55
2023/05/12 06:41:42;;;;;;;7.18;3.05;;;;;;;;;;4999085;28;20044;-55
2023/05/12 06:44:16;;;;;;;5.35;3.17;;;;;;;;;;4998579;28;20026;-55
2023/05/12 06:46:41;;;;;;;3.80;2.88;;;;;;;;;;5017413;28;20039;-55
2023/05/12 06:49:07;;;;;;;3.25;2.95;;;;;;;;;;4998907;28;20029;-55
2023/05/12 06:51:33;;;;;;;4.68;2.97;;;;;;;;;;4998928;28;20041;-56
2023/05/12 06:53:59;;;;;;;4.38;2.80;;;;;;;;;;5016453;28;20396;-56
2023/05/12 06:56:24;;;;;;;9.85;2.97;;;;;;;;;;5016721;28;20111;-56
2023/05/12 06:58:51;;;;;;;3.47;3.15;;;;;;;;;;5016793;28;20465;-55
2023/05/12 07:01:16;;;;;;;3.60;3.03;;;;;;;;;;5016582;28;20026;-56
2023/05/12 07:03:41;;;;;;;4.18;2.67;;;;;;;;;;5016194;28;20033;-55
2023/05/12 07:06:07;;;;;;;2.83;2.47;;;;;;;;;;5016758;28;20032;-55
2023/05/12 07:08:32;;;;;;;2.72;2.30;;;;;;;;;;4998579;28;20104;-56
2023/05/12 07:11:00;;;;;;;4.60;2.83;;;;;;;;;;5016149;28;20037;-55
2023/05/12 07:13:25;;;;;;;4.43;2.88;;;;;;;;;;5016364;28;20030;-56
2023/05/12 07:15:51;;;;;;;5.13;3.03;;;;;;;;;;5016050;28;20490;-56
2023/05/12 07:18:16;;;;;;;2.53;2.38;;;;;;;;;;5015915;28;20044;-55
2023/05/12 07:20:42;;;;;;;2.88;2.28;;;;;;;;;;5016265;28;20060;-55
2023/05/12 07:23:08;;;;;;;3.35;2.90;;;;;;;;;;5015797;28;20033;-55
2023/05/12 07:25:33;;;;;;;5.57;2.67;;;;;;;;;;5016184;28;20388;-56
2023/05/12 07:27:58;;;;;;;5.57;2.50;;;;;;;;;;5016104;28;20014;-55
2023/05/12 07:30:24;;;;;;;5.00;2.90;;;;;;;;;;5016069;28;20041;-56
2023/05/12 07:32:49;;;;;;;8.20;2.63;;;;;;;;;;5015701;28;20057;-55
2023/05/12 07:35:14;;;;;;;4.43;2.40;;;;;;;;;;5015962;28;20041;-56
2023/05/12 07:37:40;;;;;;;2.40;2.20;;;;;;;;;;5015670;28;20117;-55
2023/05/12 07:40:06;;;;;;;6.60;3.10;;;;;;;;;;4985158;28;20038;-56
2023/05/12 07:42:31;;;;;;;6.53;5.22;;;;;;;;;;4978885;28;20038;-55
2023/05/12 07:44:56;;;;;;;4.20;2.00;;;;;;;;;;4996220;28;20116;-56
2023/05/12 07:47:22;;;;;;;3.78;2.40;;;;;;;;;;4978488;28;20018;-55
2023/05/12 07:49:47;;;;;;;3.80;2.72;;;;;;;;;;4978423;28;20084;-56
2023/05/12 07:52:12;;;;;;;4.05;2.80;;;;;;;;;;4996090;28;20540;-56
2023/05/12 07:54:38;;;;;;;2.78;2.58;;;;;;;;;;4994760;28;20027;-56
2023/05/12 07:57:09;;;;;;;3.75;2.28;;;;;;;;;;4995719;28;20170;-55
2023/05/12 07:59:35;;;;;;;2.75;2.42;;;;;;;;;;4996119;28;20415;-55
2023/05/12 08:02:00;;;;;;;5.35;2.53;;;;;;;;;;4995603;28;20031;-56
2023/05/12 08:04:25;;;;;;;1.95;1.85;;;;;;;;;;4995565;28;20598;-56
2023/05/12 08:06:51;;;;;;;3.83;2.08;;;;;;;;;;4996320;28;20474;-56
2023/05/12 08:09:16;;;;;;;2.42;1.85;;;;;;;;;;4995719;28;20041;-56
2023/05/12 08:11:42;;;;;;;4.03;2.40;;;;;;;;;;4995418;28;20026;-56
2023/05/12 08:14:08;;;;;;;2.05;1.88;;;;;;;;;;4995663;28;20095;-56
2023/05/12 08:16:33;;;;;;;3.85;2.30;;;;;;;;;;4995615;28;20077;-56
2023/05/12 08:18:59;;;;;;;2.45;2.25;;;;;;;;;;4995481;28;20038;-56
2023/05/12 08:21:24;;;;;;;2.20;2.00;;;;;;;;;;4995530;28;20038;-56
2023/05/12 08:23:50;;;;;;;2.30;2.13;;;;;;;;;;4995424;28;20042;-56
2023/05/12 08:26:15;;;;;;;2.88;1.83;;;;;;;;;;4995167;28;20031;-56
2023/05/12 08:28:40;;;;;;;5.53;2.70;;;;;;;;;;4995100;28;20034;-56
2023/05/12 08:31:06;;;;;;;2.10;2.00;;;;;;;;;;4995577;28;20049;-56
2023/05/12 08:33:35;;;;;;;3.08;2.60;;;;;;;;;;4995300;28;20064;-56
2023/05/12 08:36:00;;;;;;;4.30;2.50;;;;;;;;;;4995260;28;20034;-56
2023/05/12 08:38:26;;;;;;;3.47;2.22;;;;;;;;;;4977465;28;20038;-56
2023/05/12 08:41:10;;;;;;;4.13;2.95;;;;;;;;;;5013612;28;20125;-56
2023/05/12 08:43:48;;;;;;;2.42;2.20;;;;;;;;;;5015051;28;20037;-56
2023/05/12 08:46:14;;;;;;;3.85;2.55;;;;;;;;;;5014700;28;20115;-56
2023/05/12 08:48:40;;;;;;;2.42;2.33;;;;;;;;;;5014380;28;20030;-56
2023/05/12 08:51:09;;;;;;;5.28;2.60;;;;;;;;;;5014611;28;20112;-56
2023/05/12 08:53:35;;;;;;;2.70;2.50;;;;;;;;;;5014333;28;20025;-56
2023/05/12 08:56:01;;;;;;;2.58;2.38;;;;;;;;;;5014523;28;20116;-56
2023/05/12 08:58:27;;;;;;;5.65;2.60;;;;;;;;;;5014416;28;20515;-56
2023/05/12 09:00:52;;;;;;;2.53;2.33;;;;;;;;;;5014452;28;20025;-56
2023/05/12 09:03:19;;;;;;;3.95;2.72;;;;;;;;;;4996570;28;20112;-56
2023/05/12 09:05:44;;;;;;;3.25;2.00;;;;;;;;;;5014402;28;20036;-56
2023/05/12 09:08:10;;;;;;;6.93;2.13;;;;;;;;;;5014059;28;20034;-56
2023/05/12 09:10:36;;;;;;;5.13;2.25;;;;;;;;;;5014058;28;20038;-56
2023/05/12 09:13:02;;;;;;;3.35;2.10;;;;;;;;;;5014332;28;20026;-56
2023/05/12 09:15:31;;;;;;;4.32;2.95;;;;;;;;;;5013991;28;20029;-56
2023/05/12 09:17:57;;;;;;;4.95;2.55;;;;;;;;;;5013976;28;20483;-56
2023/05/12 09:20:24;;;;;;;4.95;2.65;;;;;;;;;;5013909;28;20026;-56
2023/05/12 09:22:50;;;;;;;4.22;2.50;;;;;;;;;;5014147;28;20113;-56
2023/05/12 09:25:17;;;;;;;2.95;2.20;;;;;;;;;;5013876;28;20057;-56
2023/05/12 09:27:42;;;;;;;2.13;1.98;;;;;;;;;;5014162;28;20030;-56
2023/05/12 09:30:08;;;;;;;5.13;2.30;;;;;;;;;;5014123;28;20022;-56
2023/05/12 09:32:34;;;;;;;2.83;2.40;;;;;;;;;;5014133;28;20468;-56
2023/05/12 09:35:04;;;;;;;6.07;2.65;;;;;;;;;;5014079;28;20108;-56
2023/05/12 09:37:31;;;;;;;5.97;2.40;;;;;;;;;;5014072;28;20033;-56
2023/05/12 09:40:00;;;;;;;3.10;2.03;;;;;;;;;;5013779;28;20078;-56
2023/05/12 09:42:28;;;;;;;5.03;2.92;;;;;;;;;;5013973;28;20380;-56
2023/05/12 09:44:56;;;;;;;8.55;2.55;;;;;;;;;;5013953;28;20042;-56
2023/05/12 09:47:25;;;;;;;3.85;2.10;;;;;;;;;;5013716;28;20045;-56
2023/05/12 09:49:51;;;;;;;5.22;2.70;;;;;;;;;;4996182;28;20045;-56
2023/05/12 09:52:19;;;;;;;3.53;2.67;;;;;;;;;;5013944;28;20017;-56
2023/05/12 09:54:46;;;;;;;5.30;2.35;;;;;;;;;;5013776;28;20392;-56
2023/05/12 09:57:14;;;;;;;2.65;2.30;;;;;;;;;;5013565;28;20105;-56
2023/05/12 09:59:42;;;;;;;2.42;2.22;;;;;;;;;;5013950;28;20045;-56
2023/05/12 10:02:08;;;;;;;2.60;2.40;;;;;;;;;;4996364;28;20030;-56
2023/05/12 10:04:41;;;;;;;3.70;2.38;;;;;;;;;;5013456;28;20033;-56
2023/05/12 10:07:08;;;;;;;4.75;2.30;;;;;;;;;;5013748;28;20036;-56
2023/05/12 10:09:35;;;;;;;5.60;2.47;;;;;;;;;;5013454;28;20036;-56
2023/05/12 10:12:01;;;;;;;4.35;2.50;;;;;;;;;;5013441;28;20084;-56
2023/05/12 10:14:27;;;;;;;2.20;2.10;;;;;;;;;;5013449;28;20065;-56
2023/05/12 10:16:53;;;;;;;2.65;2.45;;;;;;;;;;5013699;28;20042;-56
2023/05/12 10:19:18;;;;;;;2.45;2.33;;;;;;;;;;5016426;28;20026;-56
2023/05/12 10:21:45;;;;;;;3.42;2.33;;;;;;;;;;5017386;28;20018;-56
2023/05/12 10:24:13;;;;;;;1.80;1.70;;;;;;;;;;5017309;28;20037;-56
2023/05/12 10:26:38;;;;;;;4.88;2.20;;;;;;;;;;4999320;28;20018;-56
2023/05/12 10:29:04;;;;;;;3.15;2.22;;;;;;;;;;5017516;28;20087;-56
2023/05/12 10:31:30;;;;;;;5.07;2.50;;;;;;;;;;5016930;28;20105;-56
2023/05/12 10:33:57;;;;;;;2.13;1.92;;;;;;;;;;5017113;28;20495;-56
2023/05/12 10:36:23;;;;;;;3.45;2.88;;;;;;;;;;5017050;28;20362;-56
2023/05/12 10:38:48;;;;;;;2.72;2.50;;;;;;;;;;4998904;28;20021;-56
2023/05/12 10:41:15;;;;;;;3.25;2.00;;;;;;;;;;5016998;28;20037;-56
2023/05/12 10:43:45;;;;;;;3.20;2.20;;;;;;;;;;5016949;28;20026;-56
2023/05/12 10:46:10;;;;;;;2.88;1.80;;;;;;;;;;5016610;28;20109;-56
2023/05/12 10:48:37;;;;;;;3.97;1.83;;;;;;;;;;5016844;28;20081;-56
2023/05/12 10:51:06;;;;;;;2.70;2.13;;;;;;;;;;5016571;28;20540;-56
2023/05/12 10:53:32;;;;;;;2.67;1.90;;;;;;;;;;5016507;28;20037;-56
2023/05/12 10:56:01;;;;;;;3.53;1.70;;;;;;;;;;5016959;28;20026;-56
2023/05/12 10:58:27;;;;;;;3.50;1.98;;;;;;;;;;4998907;28;20568;-56
2023/05/12 11:00:53;;;;;;;1.70;1.40;;;;;;;;;;5017177;28;20022;-56
2023/05/12 11:03:22;;;;;;;2.53;1.33;;;;;;;;;;5016582;28;20064;-56
2023/05/12 11:05:57;;;;;;;3.67;1.60;;;;;;;;;;5016287;28;20109;-56
2023/05/12 11:08:23;;;;;;;4.65;1.77;;;;;;;;;;5016231;28;20025;-56
2023/05/12 11:10:49;;;;;;;2.08;1.25;;;;;;;;;;5016197;28;20388;-55
2023/05/12 11:13:16;;;;;;;3.53;1.67;;;;;;;;;;5016123;28;20061;-56
2023/05/12 11:15:43;;;;;;;1.77;1.27;;;;;;;;;;5016370;28;20460;-56
2023/05/12 11:18:08;;;;;;;4.30;1.70;;;;;;;;;;4998842;28;20069;-56
2023/05/12 11:20:34;;;;;;;1.95;1.45;;;;;;;;;;5016280;28;20053;-56
2023/05/12 11:22:59;;;;;;;2.45;1.83;;;;;;;;;;5015982;28;20517;-56
2023/05/12 11:25:25;;;;;;;3.33;1.60;;;;;;;;;;5016189;28;20030;-56
2023/05/12 11:27:50;;;;;;;2.95;1.70;;;;;;;;;;5015819;28;20069;-56
2023/05/12 11:30:16;;;;;;;2.70;1.45;;;;;;;;;;4998131;28;20069;-56
2023/05/12 11:32:42;;;;;;;5.35;1.50;;;;;;;;;;4998192;28;20385;-56
2023/05/12 11:35:14;;;;;;;3.00;1.70;;;;;;;;;;5016030;28;20034;-56
2023/05/12 11:37:40;;;;;;;1.80;1.65;;;;;;;;;;5015917;28;20033;-56
2023/05/12 11:40:12;;;;;;;3.13;1.58;;;;;;;;;;5015481;28;20169;-56
2023/05/12 11:42:40;;;;;;;2.17;1.40;;;;;;;;;;5015778;28;20121;-56
2023/05/12 11:45:05;;;;;;;4.53;1.73;;;;;;;;;;5015839;28;20033;-56
2023/05/12 11:47:30;;;;;;;2.13;1.60;;;;;;;;;;5015757;28;20040;-56
2023/05/12 11:49:56;;;;;;;3.08;1.58;;;;;;;;;;5015499;28;20040;-56
2023/05/12 11:52:22;;;;;;;2.35;1.40;;;;;;;;;;5015570;28;20511;-56
2023/05/12 11:54:48;;;;;;;1.38;1.27;;;;;;;;;;5015359;28;20392;-56
2023/05/12 11:57:23;;;;;;;2.50;1.67;;;;;;;;;;5015825;28;20117;-56
2023/05/12 11:59:56;;;;;;;4.53;1.30;;;;;;;;;;5015176;28;20038;-56
2023/05/12 12:02:22;;;;;;;3.67;1.38;;;;;;;;;;5015504;28;20117;-55
2023/05/12 12:04:47;;;;;;;3.15;1.48;;;;;;;;;;5015740;28;20108;-56
2023/05/12 12:07:12;;;;;;;3.35;1.50;;;;;;;;;;5015445;28;20128;-56
2023/05/12 12:09:42;;;;;;;4.13;1.60;;;;;;;;;;5015326;28;20411;-56
2023/05/12 12:12:09;;;;;;;1.85;1.40;;;;;;;;;;5015036;28;20033;-56
2023/05/12 12:14:36;;;;;;;1.80;1.70;;;;;;;;;;5014992;28;20104;-56
2023/05/12 12:17:02;;;;;;;1.33;1.27;;;;;;;;;;4997957;28;20038;-56
2023/05/12 12:19:28;;;;;;;4.30;1.70;;;;;;;;;;5015060;28;20045;-56
2023/05/12 12:21:53;;;;;;;1.70;1.60;;;;;;;;;;5015176;28;20449;-56
2023/05/12 12:24:19;;;;;;;1.88;1.55;;;;;;;;;;5015116;28;20033;-56
2023/05/12 12:26:44;;;;;;;9.60;1.70;;;;;;;;;;4997227;28;20476;-56
2023/05/12 12:29:09;;;;;;;4.93;1.50;;;;;;;;;;5014753;28;20030;-56
2023/05/12 12:31:35;;;;;;;4.15;1.85;;;;;;;;;;5014954;28;20030;-56
2023/05/12 12:34:01;;;;;;;2.00;1.52;;;;;;;;;;5014938;28;20034;-56
2023/05/12 12:36:26;;;;;;;2.67;1.60;;;;;;;;;;5014608;28;20064;-56
2023/05/12 12:38:51;;;;;;;2.30;1.65;;;;;;;;;;5014546;28;20475;-56
2023/05/12 12:41:17;;;;;;;1.88;1.77;;;;;;;;;;5014544;28;20057;-56
2023/05/12 12:43:43;;;;;;;2.33;1.70;;;;;;;;;;5014764;28;20030;-56
2023/05/12 12:46:08;;;;;;;2.35;1.65;;;;;;;;;;5014447;28;20072;-56
2023/05/12 12:48:33;;;;;;;1.85;1.52;;;;;;;;;;5014587;28;20025;-56
2023/05/12 12:50:59;;;;;;;1.95;1.75;;;;;;;;;;5014391;28;20384;-56
2023/05/12 12:53:25;;;;;;;2.63;1.75;;;;;;;;;;5014876;28;20037;-56
2023/05/12 12:55:50;;;;;;;3.00;1.70;;;;;;;;;;5014170;28;20042;-56
2023/05/12 12:58:15;;;;;;;2.00;1.90;;;;;;;;;;5014537;28;20032;-55
2023/05/12 13:00:42;;;;;;;1.90;1.70;;;;;;;;;;5014336;28;20057;-56
2023/05/12 13:03:07;;;;;;;2.85;1.73;;;;;;;;;;4995988;28;20050;-56
2023/05/12 13:05:33;;;;;;;2.92;2.05;;;;;;;;;;5012203;28;20461;-56
2023/05/12 13:07:58;;;;;;;3.08;1.98;;;;;;;;;;5012661;28;20087;-56
2023/05/12 13:10:24;;;;;;;4.38;2.00;;;;;;;;;;5012824;28;20030;-56
2023/05/12 13:12:50;;;;;;;3.70;1.90;;;;;;;;;;5012922;28;20408;-56
2023/05/12 13:15:17;;;;;;;4.35;2.50;;;;;;;;;;5014074;28;20037;-56
2023/05/12 13:17:45;;;;;;;6.25;2.17;;;;;;;;;;4996157;28;20551;-56
2023/05/12 13:20:12;;;;;;;5.88;1.90;;;;;;;;;;5015234;28;20134;-56
2023/05/12 13:22:40;;;;;;;3.15;1.90;;;;;;;;;;5017047;28;20365;-56
2023/05/12 13:25:06;;;;;;;4.05;2.40;;;;;;;;;;5012429;28;20440;-55
2023/05/12 13:27:35;;;;;;;16.25;2.78;;;;;;;;;;5027802;28;20144;-55
2023/05/12 13:30:03;;;;;;;2.42;2.20;;;;;;;;;;5032464;28;20049;-57
2023/05/12 13:32:29;;;;;;;5.57;2.17;;;;;;;;;;5033156;28;20038;-56
2023/05/12 13:34:54;;;;;;;7.85;1.90;;;;;;;;;;5033399;28;20056;-56
2023/05/12 13:37:20;;;;;;;6.28;1.90;;;;;;;;;;5033314;28;20063;-57
2023/05/12 13:39:47;;;;;;;2.15;1.95;;;;;;;;;;5032896;28;20049;-56
2023/05/12 13:42:13;;;;;;;6.72;1.90;;;;;;;;;;5015155;28;20052;-56
2023/05/12 13:44:38;;;;;;;2.28;2.03;;;;;;;;;;5033284;28;20464;-56
2023/05/12 13:47:06;;;;;;;3.78;1.92;;;;;;;;;;5033175;28;20112;-56
2023/05/12 13:49:32;;;;;;;2.85;2.25;;;;;;;;;;5029577;28;20017;-56
2023/05/12 13:51:57;;;;;;;6.63;2.08;;;;;;;;;;5032698;28;20475;-56
2023/05/12 13:54:23;;;;;;;3.90;2.00;;;;;;;;;;5036393;28;20040;-56
2023/05/12 13:56:49;;;;;;;3.08;2.67;;;;;;;;;;5036048;28;20067;-56
2023/05/12 13:59:15;;;;;;;2.28;2.08;;;;;;;;;;5036909;28;20444;-56
2023/05/12 14:01:40;;;;;;;2.45;1.80;;;;;;;;;;5037189;28;20041;-57
2023/05/12 14:04:05;;;;;;;4.90;2.55;;;;;;;;;;5037122;28;20419;-57
2023/05/12 14:06:31;;;;;;;11.05;2.20;;;;;;;;;;5030922;28;20013;-57
2023/05/12 14:08:56;;;;;;;4.05;2.38;;;;;;;;;;5026324;28;20041;-57
2023/05/12 14:11:22;;;;;;;3.25;2.33;;;;;;;;;;5020479;28;20032;-57
2023/05/12 14:13:47;;;;;;;5.65;2.97;;;;;;;;;;5024488;28;20025;-57
2023/05/12 14:16:12;;;;;;;3.70;1.90;;;;;;;;;;5024656;28;20033;-64
2023/05/12 14:18:38;;;;;;;2.30;2.10;;;;;;;;;;5025665;28;20022;-64
2023/05/12 14:21:04;;;;;;;4.63;2.30;;;;;;;;;;5023904;28;20030;-64
2023/05/12 14:23:29;;;;;;;3.38;1.92;;;;;;;;;;5008805;28;20032;-65
2023/05/12 14:25:55;;;;;;;3.55;2.17;;;;;;;;;;5025126;28;20462;-65
2023/05/12 14:28:22;;;;;;;3.42;2.05;;;;;;;;;;5007161;28;20025;-64
2023/05/12 14:30:47;;;;;;;2.75;1.80;;;;;;;;;;5023903;28;20037;-65
2023/05/12 14:33:13;;;;;;;2.95;1.67;;;;;;;;;;5020559;28;20457;-65
2023/05/12 14:35:39;;;;;;;3.90;1.70;;;;;;;;;;5015203;28;20018;-64
2023/05/12 14:38:05;;;;;;;2.28;2.08;;;;;;;;;;5016278;28;20457;-64